createdAt,value
2022-08-11T00:00:59.119Z,1011.99
2022-08-11T00:01:58.147Z,1011.98
2022-08-11T00:02:58.174Z,1012.02
2022-08-11T00:03:58.105Z,1012.03
2022-08-11T00:04:58.102Z,1012.04
2022-08-11T00:05:58.104Z,1012.04
2022-08-11T00:06:58.096Z,1012.01
2022-08-11T00:07:58.116Z,1012.06
2022-08-11T00:08:58.154Z,1012.04
2022-08-11T00:09:58.210Z,1012
2022-08-11T00:10:58.560Z,1012.01
2022-08-11T00:12:01.301Z,1012.01
2022-08-11T00:12:58.247Z,1012
2022-08-11T00:13:58.357Z,1012
2022-08-11T00:14:58.139Z,1012.01
2022-08-11T00:15:58.488Z,1011.99
2022-08-11T00:16:59.294Z,1011.98
2022-08-11T00:17:58.659Z,1011.96
2022-08-11T00:18:58.801Z,1011.99
2022-08-11T00:20:11.203Z,1011.99
2022-08-11T00:20:58.634Z,1012.01
2022-08-11T00:22:07.247Z,1012.03
2022-08-11T00:22:58.418Z,1012.02
2022-08-11T00:23:58.235Z,1012.05
2022-08-11T00:25:04.301Z,1012.02
2022-08-11T00:25:58.100Z,1012.03
2022-08-11T00:26:58.114Z,1012.09
2022-08-11T00:27:58.103Z,1012.05
2022-08-11T00:28:58.096Z,1012.05
2022-08-11T00:29:58.118Z,1012.07
2022-08-11T00:30:58.104Z,1012.04
2022-08-11T00:31:58.127Z,1012.08
2022-08-11T00:32:58.093Z,1012.09
2022-08-11T00:33:58.089Z,1012.11
2022-08-11T00:35:50.233Z,1012.11
2022-08-11T00:36:01.119Z,1012.09
2022-08-11T00:36:58.223Z,1012.06
2022-08-11T00:37:58.086Z,1012.08
2022-08-11T00:38:58.099Z,1012.07
2022-08-11T00:39:58.120Z,1012.1
2022-08-11T00:40:58.374Z,1012.07
2022-08-11T00:42:01.146Z,1012.05
2022-08-11T00:42:58.523Z,1012.07
2022-08-11T00:43:59.782Z,1012.09
2022-08-11T00:44:58.520Z,1012.09
2022-08-11T00:45:58.314Z,1012.06
2022-08-11T00:46:58.830Z,1012.1
2022-08-11T00:48:01.662Z,1012.08
2022-08-11T00:48:58.086Z,1012.09
2022-08-11T00:49:58.373Z,1012.13
2022-08-11T00:50:58.635Z,1012.06
2022-08-11T00:52:07.240Z,1012.09
2022-08-11T00:52:58.225Z,1012.12
2022-08-11T00:53:58.539Z,1012.09
2022-08-11T00:54:58.841Z,1012.08
2022-08-11T00:56:00.204Z,1012.08
2022-08-11T00:56:58.861Z,1012.12
2022-08-11T00:57:58.360Z,1012.09
2022-08-11T00:59:03.317Z,1012.1
2022-08-11T00:59:58.718Z,1012.1
2022-08-11T01:00:58.485Z,1012.1
2022-08-11T01:01:58.654Z,1012.13
2022-08-11T01:02:58.232Z,1012.1
2022-08-11T01:03:58.521Z,1012.08
2022-08-11T01:04:58.220Z,1012.1
2022-08-11T01:05:58.518Z,1012.06
2022-08-11T01:06:58.211Z,1012.05
2022-08-11T01:08:04.878Z,1012.04
2022-08-11T01:08:58.613Z,1012.03
2022-08-11T01:09:58.107Z,1012.07
2022-08-11T01:10:58.325Z,1012.05
2022-08-11T01:11:58.274Z,1012.07
2022-08-11T01:12:58.505Z,1012.04
2022-08-11T01:13:58.224Z,1012.03
2022-08-11T01:14:58.277Z,1011.96
2022-08-11T01:16:01.189Z,1012
2022-08-11T01:16:58.138Z,1011.99
2022-08-11T01:17:58.410Z,1012
2022-08-11T01:18:58.139Z,1012.02
2022-08-11T01:20:39.507Z,1012.01
2022-08-11T01:20:58.115Z,1012.03
2022-08-11T01:21:59.101Z,1012.02
2022-08-11T01:22:58.134Z,1012.02
2022-08-11T01:23:58.111Z,1012.03
2022-08-11T01:24:58.123Z,1012
2022-08-11T01:26:01.113Z,1012.02
2022-08-11T01:26:58.113Z,1011.98
2022-08-11T01:27:58.111Z,1012.01
2022-08-11T01:28:58.122Z,1011.98
2022-08-11T01:29:58.099Z,1012.02
2022-08-11T01:30:58.109Z,1011.98
2022-08-11T01:31:59.121Z,1012.04
2022-08-11T01:32:58.135Z,1012.01
2022-08-11T01:33:58.097Z,1012.01
2022-08-11T01:34:58.123Z,1012.03
2022-08-11T01:35:58.124Z,1012.05
2022-08-11T01:37:01.120Z,1012
2022-08-11T01:37:58.188Z,1012.01
2022-08-11T01:38:58.159Z,1012.02
2022-08-11T01:39:58.217Z,1012.03
2022-08-11T01:40:58.100Z,1012.03
2022-08-11T01:41:58.109Z,1012.03
2022-08-11T01:42:58.103Z,1012
2022-08-11T01:43:58.111Z,1012
2022-08-11T01:44:58.119Z,1012.04
2022-08-11T01:45:58.085Z,1011.99
2022-08-11T01:46:58.114Z,1012.03
2022-08-11T01:47:58.096Z,1012.06
2022-08-11T01:48:58.118Z,1012.07
2022-08-11T01:50:10.112Z,1012.09
2022-08-11T01:50:58.103Z,1012.06
2022-08-11T01:51:58.105Z,1012.07
2022-08-11T01:52:58.112Z,1012.12
2022-08-11T01:53:58.104Z,1012.1
2022-08-11T01:54:58.121Z,1012.16
2022-08-11T01:55:58.112Z,1012.14
2022-08-11T01:56:58.114Z,1012.12
2022-08-11T01:57:58.109Z,1012.14
2022-08-11T01:58:58.170Z,1012.08
2022-08-11T01:59:58.119Z,1012.14
2022-08-11T02:00:58.155Z,1012.14
2022-08-11T02:01:58.226Z,1012.14
2022-08-11T02:02:58.103Z,1012.17
2022-08-11T02:03:58.110Z,1012.15
2022-08-11T02:04:58.105Z,1012.16
2022-08-11T02:05:58.098Z,1012.21
2022-08-11T02:06:58.115Z,1012.15
2022-08-11T02:07:58.120Z,1012.16
2022-08-11T02:08:59.116Z,1012.17
2022-08-11T02:09:58.128Z,1012.15
2022-08-11T02:10:59.104Z,1012.13
2022-08-11T02:11:59.110Z,1012.16
2022-08-11T02:12:58.109Z,1012.13
2022-08-11T02:13:59.100Z,1012.14
2022-08-11T02:15:07.137Z,1012.17
2022-08-11T02:15:58.113Z,1012.16
2022-08-11T02:16:58.103Z,1012.14
2022-08-11T02:17:58.101Z,1012.18
2022-08-11T02:18:58.098Z,1012.11
2022-08-11T02:19:58.103Z,1012.1
2022-08-11T02:20:58.115Z,1012.16
2022-08-11T02:21:58.106Z,1012.11
2022-08-11T02:22:58.126Z,1012.12
2022-08-11T02:24:08.240Z,1012.14
2022-08-11T02:24:58.139Z,1012.17
2022-08-11T02:25:58.090Z,1012.16
2022-08-11T02:26:58.129Z,1012.16
2022-08-11T02:27:58.233Z,1012.14
2022-08-11T02:28:58.649Z,1012.13
2022-08-11T02:29:58.562Z,1012.15
2022-08-11T02:30:57.827Z,1012.13
2022-08-11T02:32:17.200Z,1012.13
2022-08-11T02:32:58.371Z,1012.13
2022-08-11T02:33:58.838Z,1012.12
2022-08-11T02:35:02.138Z,1012.12
2022-08-11T02:35:58.680Z,1012.12
2022-08-11T02:36:58.733Z,1012.11
2022-08-11T02:37:58.202Z,1012.14
2022-08-11T02:38:58.515Z,1012.11
2022-08-11T02:39:58.891Z,1012.09
2022-08-11T02:40:58.123Z,1012.09
2022-08-11T02:41:58.104Z,1012.13
2022-08-11T02:42:58.127Z,1012.07
2022-08-11T02:43:58.423Z,1012.08
2022-08-11T02:44:58.147Z,1012.07
2022-08-11T02:45:58.119Z,1012.05
2022-08-11T02:46:58.102Z,1012.1
2022-08-11T02:47:58.096Z,1012.08
2022-08-11T02:48:58.098Z,1012.09
2022-08-11T02:50:07.114Z,1012.09
2022-08-11T02:50:58.115Z,1012.14
2022-08-11T02:51:58.121Z,1012.14
2022-08-11T02:52:58.110Z,1012.09
2022-08-11T02:54:01.104Z,1012.08
2022-08-11T02:54:58.160Z,1012.07
2022-08-11T02:56:01.102Z,1012.09
2022-08-11T02:56:58.119Z,1012.07
2022-08-11T02:57:59.261Z,1012.1
2022-08-11T02:58:58.254Z,1012.11
2022-08-11T02:59:58.221Z,1012.12
2022-08-11T03:00:58.258Z,1012.12
2022-08-11T03:02:05.797Z,1012.1
2022-08-11T03:02:58.289Z,1012.15
2022-08-11T03:03:58.272Z,1012.17
2022-08-11T03:04:58.293Z,1012.15
2022-08-11T03:05:58.346Z,1012.2
2022-08-11T03:06:58.464Z,1012.21
2022-08-11T03:07:58.354Z,1012.16
2022-08-11T03:08:58.467Z,1012.2
2022-08-11T03:09:58.336Z,1012.2
2022-08-11T03:10:58.374Z,1012.23
2022-08-11T03:11:58.337Z,1012.24
2022-08-11T03:12:58.342Z,1012.21
2022-08-11T03:13:58.336Z,1012.21
2022-08-11T03:14:58.369Z,1012.17
2022-08-11T03:15:58.379Z,1012.17
2022-08-11T03:17:00.684Z,1012.19
2022-08-11T03:17:58.498Z,1012.22
2022-08-11T03:18:58.432Z,1012.24
2022-08-11T03:19:58.426Z,1012.27
2022-08-11T03:20:58.532Z,1012.31
2022-08-11T03:22:05.451Z,1012.36
2022-08-11T03:22:58.428Z,1012.31
2022-08-11T03:23:58.570Z,1012.34
2022-08-11T03:24:58.599Z,1012.32
2022-08-11T03:25:58.632Z,1012.31
2022-08-11T03:26:58.126Z,1012.32
2022-08-11T03:28:04.119Z,1012.33
2022-08-11T03:28:58.328Z,1012.32
2022-08-11T03:29:58.350Z,1012.31
2022-08-11T03:30:58.442Z,1012.29
2022-08-11T03:31:58.417Z,1012.33
2022-08-11T03:32:58.475Z,1012.3
2022-08-11T03:34:01.531Z,1012.27
2022-08-11T03:34:58.755Z,1012.29
2022-08-11T03:35:59.005Z,1012.29
2022-08-11T03:37:15.957Z,1012.28
2022-08-11T03:37:58.111Z,1012.25
2022-08-11T03:38:58.132Z,1012.27
2022-08-11T03:39:59.600Z,1012.26
2022-08-11T03:40:58.170Z,1012.28
2022-08-11T03:42:09.447Z,1012.29
2022-08-11T03:42:58.168Z,1012.28
2022-08-11T03:44:01.813Z,1012.31
2022-08-11T03:44:58.109Z,1012.3
2022-08-11T03:45:58.082Z,1012.28
2022-08-11T03:46:58.141Z,1012.28
2022-08-11T03:47:59.105Z,1012.3
2022-08-11T03:48:58.404Z,1012.32
2022-08-11T03:49:58.221Z,1012.3
2022-08-11T03:50:58.534Z,1012.29
2022-08-11T03:51:58.263Z,1012.24
2022-08-11T03:52:58.613Z,1012.28
2022-08-11T03:53:58.317Z,1012.26
2022-08-11T03:54:58.108Z,1012.27
2022-08-11T03:55:58.429Z,1012.27
2022-08-11T03:56:58.143Z,1012.28
2022-08-11T03:57:58.474Z,1012.3
2022-08-11T03:58:58.370Z,1012.27
2022-08-11T03:59:58.526Z,1012.3
2022-08-11T04:00:58.130Z,1012.27
2022-08-11T04:01:58.227Z,1012.26
2022-08-11T04:02:58.137Z,1012.26
2022-08-11T04:03:58.111Z,1012.25
2022-08-11T04:04:58.109Z,1012.23
2022-08-11T04:05:58.079Z,1012.23
2022-08-11T04:06:58.134Z,1012.25
2022-08-11T04:07:58.119Z,1012.29
2022-08-11T04:08:58.091Z,1012.27
2022-08-11T04:09:58.121Z,1012.26
2022-08-11T04:11:01.335Z,1012.31
2022-08-11T04:11:58.430Z,1012.28
2022-08-11T04:12:58.129Z,1012.27
2022-08-11T04:13:58.106Z,1012.23
2022-08-11T04:14:58.289Z,1012.18
2022-08-11T04:15:58.094Z,1012.18
2022-08-11T04:16:58.205Z,1012.18
2022-08-11T04:17:58.415Z,1012.22
2022-08-11T04:18:58.673Z,1012.21
2022-08-11T04:19:58.083Z,1012.18
2022-08-11T04:20:58.260Z,1012.2
2022-08-11T04:21:58.493Z,1012.21
2022-08-11T04:22:58.617Z,1012.18
2022-08-11T04:24:13.376Z,1012.23
2022-08-11T04:24:58.484Z,1012.26
2022-08-11T04:26:00.909Z,1012.29
2022-08-11T04:26:58.115Z,1012.27
2022-08-11T04:27:59.376Z,1012.29
2022-08-11T04:28:59.093Z,1012.29
2022-08-11T04:30:09.072Z,1012.31
2022-08-11T04:31:00.269Z,1012.34
2022-08-11T04:31:58.139Z,1012.3
2022-08-11T04:32:58.303Z,1012.26
2022-08-11T04:34:01.173Z,1012.35
2022-08-11T04:34:58.125Z,1012.35
2022-08-11T04:35:58.108Z,1012.31
2022-08-11T04:36:58.132Z,1012.33
2022-08-11T04:37:58.090Z,1012.36
2022-08-11T04:38:58.120Z,1012.34
2022-08-11T04:39:58.095Z,1012.31
2022-08-11T04:40:58.109Z,1012.33
2022-08-11T04:41:58.118Z,1012.33
2022-08-11T04:42:58.117Z,1012.33
2022-08-11T04:44:07.300Z,1012.33
2022-08-11T04:44:58.114Z,1012.34
2022-08-11T04:45:58.121Z,1012.32
2022-08-11T04:46:58.154Z,1012.32
2022-08-11T04:48:05.359Z,1012.35
2022-08-11T04:48:58.111Z,1012.3
2022-08-11T04:49:58.106Z,1012.34
2022-08-11T04:51:08.944Z,1012.35
2022-08-11T04:51:58.127Z,1012.34
2022-08-11T04:52:58.105Z,1012.37
2022-08-11T04:53:58.119Z,1012.34
2022-08-11T04:54:58.116Z,1012.36
2022-08-11T04:55:58.117Z,1012.35
2022-08-11T04:56:58.128Z,1012.31
2022-08-11T04:57:58.270Z,1012.27
2022-08-11T04:58:58.127Z,1012.29
2022-08-11T04:59:58.133Z,1012.27
2022-08-11T05:00:59.127Z,1012.24
2022-08-11T05:01:58.151Z,1012.29
2022-08-11T05:02:58.198Z,1012.27
2022-08-11T05:03:58.119Z,1012.28
2022-08-11T05:04:58.108Z,1012.28
2022-08-11T05:06:01.100Z,1012.28
2022-08-11T05:06:58.135Z,1012.26
2022-08-11T05:07:58.126Z,1012.28
2022-08-11T05:08:58.124Z,1012.3
2022-08-11T05:09:58.101Z,1012.27
2022-08-11T05:10:58.108Z,1012.26
2022-08-11T05:12:04.177Z,1012.26
2022-08-11T05:12:58.103Z,1012.29
2022-08-11T05:13:58.094Z,1012.27
2022-08-11T05:14:58.103Z,1012.27
2022-08-11T05:15:58.098Z,1012.28
2022-08-11T05:16:58.133Z,1012.28
2022-08-11T05:17:58.109Z,1012.31
2022-08-11T05:18:58.106Z,1012.28
2022-08-11T05:19:58.130Z,1012.3
2022-08-11T05:20:59.114Z,1012.26
2022-08-11T05:22:01.131Z,1012.22
2022-08-11T05:22:58.116Z,1012.22
2022-08-11T05:23:58.142Z,1012.24
2022-08-11T05:24:58.115Z,1012.2
2022-08-11T05:26:09.332Z,1012.2
2022-08-11T05:26:58.113Z,1012.23
2022-08-11T05:27:58.111Z,1012.2
2022-08-11T05:28:58.102Z,1012.25
2022-08-11T05:29:58.103Z,1012.22
2022-08-11T05:30:58.127Z,1012.2
2022-08-11T05:31:58.103Z,1012.21
2022-08-11T05:33:04.114Z,1012.19
2022-08-11T05:33:58.108Z,1012.23
2022-08-11T05:34:58.122Z,1012.21
2022-08-11T05:36:06.124Z,1012.24
2022-08-11T05:37:25.477Z,1012.23
2022-08-11T05:37:58.105Z,1012.25
2022-08-11T05:38:58.115Z,1012.26
2022-08-11T05:39:58.143Z,1012.26
2022-08-11T05:41:03.096Z,1012.26
2022-08-11T05:41:58.252Z,1012.24
2022-08-11T05:42:58.705Z,1012.2
2022-08-11T05:44:19.364Z,1012.16
2022-08-11T05:44:58.830Z,1012.21
2022-08-11T05:46:08.112Z,1012.23
2022-08-11T05:46:58.272Z,1012.2
2022-08-11T05:47:58.629Z,1012.18
2022-08-11T05:48:58.010Z,1012.21
2022-08-11T05:50:01.300Z,1012.21
2022-08-11T05:50:59.524Z,1012.19
2022-08-11T05:52:12.756Z,1012.2
2022-08-11T05:53:00.355Z,1012.18
2022-08-11T05:53:59.235Z,1012.16
2022-08-11T05:55:00.099Z,1012.14
2022-08-11T05:56:04.263Z,1012.15
2022-08-11T05:56:58.138Z,1012.2
2022-08-11T05:57:58.357Z,1012.17
2022-08-11T05:58:58.121Z,1012.2
2022-08-11T05:59:58.179Z,1012.21
2022-08-11T06:00:58.113Z,1012.21
2022-08-11T06:01:58.157Z,1012.24
2022-08-11T06:02:58.205Z,1012.23
2022-08-11T06:04:01.778Z,1012.19
2022-08-11T06:04:58.161Z,1012.18
2022-08-11T06:05:58.094Z,1012.16
2022-08-11T06:06:58.112Z,1012.19
2022-08-11T06:07:59.113Z,1012.18
2022-08-11T06:08:59.110Z,1012.21
2022-08-11T06:09:58.134Z,1012.16
2022-08-11T06:10:58.107Z,1012.19
2022-08-11T06:11:58.103Z,1012.2
2022-08-11T06:12:58.106Z,1012.19
2022-08-11T06:13:58.215Z,1012.18
2022-08-11T06:14:58.138Z,1012.17
2022-08-11T06:15:58.109Z,1012.17
2022-08-11T06:16:58.106Z,1012.15
2022-08-11T06:17:58.108Z,1012.15
2022-08-11T06:18:58.107Z,1012.16
2022-08-11T06:20:07.916Z,1012.2
2022-08-11T06:20:58.108Z,1012.17
2022-08-11T06:21:58.138Z,1012.22
2022-08-11T06:22:58.101Z,1012.19
2022-08-11T06:23:58.111Z,1012.17
2022-08-11T06:24:58.124Z,1012.17
2022-08-11T06:25:59.111Z,1012.14
2022-08-11T06:27:13.291Z,1012.1
2022-08-11T06:27:58.111Z,1012.11
2022-08-11T06:29:02.124Z,1012.09
2022-08-11T06:29:58.115Z,1012.05
2022-08-11T06:30:58.112Z,1012.05
2022-08-11T06:31:58.114Z,1012.01
2022-08-11T06:32:58.119Z,1011.97
2022-08-11T06:33:58.095Z,1012
2022-08-11T06:34:58.095Z,1012
2022-08-11T06:35:58.097Z,1011.99
2022-08-11T06:36:58.176Z,1012
2022-08-11T06:38:01.370Z,1012.05
2022-08-11T06:38:58.102Z,1012.03
2022-08-11T06:39:58.442Z,1012.04
2022-08-11T06:40:58.251Z,1012.02
2022-08-11T06:41:58.613Z,1011.98
2022-08-11T06:42:58.265Z,1011.96
2022-08-11T06:44:05.517Z,1011.99
2022-08-11T06:44:58.462Z,1011.93
2022-08-11T06:45:58.437Z,1011.94
2022-08-11T06:46:58.630Z,1011.91
2022-08-11T06:47:58.500Z,1011.93
2022-08-11T06:48:58.794Z,1011.95
2022-08-11T06:49:59.048Z,1011.99
2022-08-11T06:50:58.109Z,1011.94
2022-08-11T06:52:05.629Z,1011.94
2022-08-11T06:52:58.105Z,1011.92
2022-08-11T06:54:07.449Z,1011.95
2022-08-11T06:54:58.112Z,1011.92
2022-08-11T06:56:01.297Z,1011.92
2022-08-11T06:57:28.687Z,1011.92
2022-08-11T06:57:58.241Z,1011.98
2022-08-11T06:58:58.112Z,1011.95
2022-08-11T06:59:59.107Z,1011.98
2022-08-11T07:00:58.121Z,1011.96
2022-08-11T07:01:58.145Z,1011.96
2022-08-11T07:02:59.126Z,1011.96
2022-08-11T07:03:58.175Z,1011.99
2022-08-11T07:04:58.136Z,1011.94
2022-08-11T07:05:58.105Z,1011.99
2022-08-11T07:06:58.158Z,1011.96
2022-08-11T07:08:01.612Z,1011.96
2022-08-11T07:08:58.101Z,1011.98
2022-08-11T07:09:58.117Z,1011.95
2022-08-11T07:10:58.103Z,1011.95
2022-08-11T07:11:58.151Z,1011.95
2022-08-11T07:12:58.142Z,1011.92
2022-08-11T07:13:58.121Z,1011.94
2022-08-11T07:15:02.216Z,1011.95
2022-08-11T07:16:11.891Z,1011.95
2022-08-11T07:16:58.137Z,1011.95
2022-08-11T07:17:58.127Z,1011.94
2022-08-11T07:18:58.118Z,1011.9
2022-08-11T07:19:59.095Z,1011.91
2022-08-11T07:21:04.190Z,1011.9
2022-08-11T07:22:05.129Z,1011.89
2022-08-11T07:22:58.134Z,1011.9
2022-08-11T07:23:58.124Z,1011.92
2022-08-11T07:25:04.286Z,1011.92
2022-08-11T07:25:58.091Z,1011.89
2022-08-11T07:26:58.298Z,1011.89
2022-08-11T07:27:58.171Z,1011.88
2022-08-11T07:28:58.888Z,1011.9
2022-08-11T07:29:58.101Z,1011.93
2022-08-11T07:30:58.107Z,1011.91
2022-08-11T07:31:58.336Z,1011.9
2022-08-11T07:32:58.610Z,1011.79
2022-08-11T07:34:11.057Z,1011.81
2022-08-11T07:34:58.213Z,1011.88
2022-08-11T07:35:58.510Z,1011.91
2022-08-11T07:36:58.218Z,1011.92
2022-08-11T07:38:05.646Z,1011.93
2022-08-11T07:38:58.659Z,1011.89
2022-08-11T07:39:58.569Z,1011.86
2022-08-11T07:40:58.152Z,1011.84
2022-08-11T07:41:58.447Z,1011.84
2022-08-11T07:42:58.514Z,1011.81
2022-08-11T07:43:58.099Z,1011.78
2022-08-11T07:44:58.277Z,1011.84
2022-08-11T07:45:58.157Z,1011.85
2022-08-11T07:46:58.119Z,1011.79
2022-08-11T07:47:58.165Z,1011.82
2022-08-11T07:48:58.445Z,1011.82
2022-08-11T07:49:58.101Z,1011.83
2022-08-11T07:50:59.094Z,1011.79
2022-08-11T07:51:58.106Z,1011.82
2022-08-11T07:52:58.099Z,1011.83
2022-08-11T07:54:15.405Z,1011.83
2022-08-11T07:54:58.111Z,1011.84
2022-08-11T07:55:59.120Z,1011.87
2022-08-11T07:57:07.721Z,1011.88
2022-08-11T07:58:15.682Z,1011.87
2022-08-11T07:59:08.344Z,1011.86
2022-08-11T08:00:05.353Z,1011.87
2022-08-11T08:01:02.199Z,1011.87
2022-08-11T08:01:58.161Z,1011.86
2022-08-11T08:02:58.111Z,1011.83
2022-08-11T08:03:58.110Z,1011.81
2022-08-11T08:04:58.125Z,1011.85
2022-08-11T08:05:58.173Z,1011.85
2022-08-11T08:06:58.119Z,1011.82
2022-08-11T08:07:58.195Z,1011.83
2022-08-11T08:09:01.247Z,1011.89
2022-08-11T08:09:58.184Z,1011.83
2022-08-11T08:10:58.124Z,1011.88
2022-08-11T08:11:58.106Z,1011.85
2022-08-11T08:12:58.107Z,1011.86
2022-08-11T08:13:58.109Z,1011.87
2022-08-11T08:14:58.114Z,1011.85
2022-08-11T08:15:58.118Z,1011.88
2022-08-11T08:16:58.207Z,1011.87
2022-08-11T08:18:08.715Z,1011.87
2022-08-11T08:18:58.114Z,1011.89
2022-08-11T08:19:58.218Z,1011.86
2022-08-11T08:20:58.113Z,1011.86
2022-08-11T08:22:11.120Z,1011.84
2022-08-11T08:22:58.103Z,1011.86
2022-08-11T08:23:59.114Z,1011.85
2022-08-11T08:24:58.103Z,1011.87
2022-08-11T08:25:58.116Z,1011.82
2022-08-11T08:26:58.116Z,1011.84
2022-08-11T08:27:58.130Z,1011.84
2022-08-11T08:28:58.119Z,1011.83
2022-08-11T08:29:58.093Z,1011.84
2022-08-11T08:31:01.089Z,1011.79
2022-08-11T08:31:58.407Z,1011.82
2022-08-11T08:32:58.079Z,1011.81
2022-08-11T08:33:58.104Z,1011.88
2022-08-11T08:34:58.091Z,1011.81
2022-08-11T08:35:59.390Z,1011.79
2022-08-11T08:36:58.090Z,1011.78
2022-08-11T08:37:58.413Z,1011.79
2022-08-11T08:38:58.737Z,1011.81
2022-08-11T08:39:58.925Z,1011.79
2022-08-11T08:40:58.773Z,1011.79
2022-08-11T08:41:58.075Z,1011.8
2022-08-11T08:42:58.329Z,1011.77
2022-08-11T08:44:57.905Z,1011.8
2022-08-11T08:45:58.173Z,1011.76
2022-08-11T08:46:58.493Z,1011.77
2022-08-11T08:47:57.851Z,1011.79
2022-08-11T08:48:59.073Z,1011.72
2022-08-11T08:50:00.348Z,1011.77
2022-08-11T08:50:59.665Z,1011.78
2022-08-11T08:52:23.612Z,1011.79
2022-08-11T08:52:59.532Z,1011.77
2022-08-11T08:54:01.821Z,1011.73
2022-08-11T08:54:58.204Z,1011.75
2022-08-11T08:55:58.512Z,1011.68
2022-08-11T08:56:58.350Z,1011.67
2022-08-11T08:57:58.462Z,1011.69
2022-08-11T08:58:58.353Z,1011.66
2022-08-11T08:59:58.698Z,1011.67
2022-08-11T09:00:59.014Z,1011.62
2022-08-11T09:01:58.579Z,1011.71
2022-08-11T09:02:58.877Z,1011.66
2022-08-11T09:04:10.662Z,1011.62
2022-08-11T09:04:58.109Z,1011.69
2022-08-11T09:05:58.266Z,1011.63
2022-08-11T09:06:58.453Z,1011.61
2022-08-11T09:07:58.816Z,1011.59
2022-08-11T09:08:58.108Z,1011.62
2022-08-11T09:09:58.143Z,1011.6
2022-08-11T09:10:58.369Z,1011.6
2022-08-11T09:11:58.111Z,1011.63
2022-08-11T09:12:58.115Z,1011.61
2022-08-11T09:14:06.745Z,1011.59
2022-08-11T09:14:58.141Z,1011.57
2022-08-11T09:15:59.115Z,1011.58
2022-08-11T09:16:58.110Z,1011.59
2022-08-11T09:17:58.100Z,1011.55
2022-08-11T09:18:59.113Z,1011.5
2022-08-11T09:20:02.500Z,1011.52
2022-08-11T09:20:58.130Z,1011.51
2022-08-11T09:21:58.118Z,1011.51
2022-08-11T09:24:11.382Z,1011.55
2022-08-11T09:24:58.254Z,1011.52
2022-08-11T09:25:58.097Z,1011.49
2022-08-11T09:26:58.110Z,1011.47
2022-08-11T09:27:58.111Z,1011.49
2022-08-11T09:28:58.122Z,1011.47
2022-08-11T09:29:58.117Z,1011.44
2022-08-11T09:30:58.112Z,1011.4
2022-08-11T09:31:58.213Z,1011.41
2022-08-11T09:32:58.223Z,1011.36
2022-08-11T09:33:58.126Z,1011.29
2022-08-11T09:34:58.126Z,1011.29
2022-08-11T09:35:58.249Z,1011.36
2022-08-11T09:36:58.112Z,1011.39
2022-08-11T09:37:59.417Z,1011.44
2022-08-11T09:38:58.106Z,1011.36
2022-08-11T09:39:58.123Z,1011.38
2022-08-11T09:41:02.120Z,1011.4
2022-08-11T09:42:05.154Z,1011.4
2022-08-11T09:42:58.124Z,1011.4
2022-08-11T09:44:04.127Z,1011.4
2022-08-11T09:44:58.112Z,1011.37
2022-08-11T09:45:58.112Z,1011.28
2022-08-11T09:46:59.214Z,1011.28
2022-08-11T09:47:58.099Z,1011.32
2022-08-11T09:48:58.103Z,1011.28
2022-08-11T09:49:58.111Z,1011.27
2022-08-11T09:50:58.116Z,1011.27
2022-08-11T09:52:07.183Z,1011.19
2022-08-11T09:53:34.725Z,1011.19
2022-08-11T09:54:05.300Z,1011.23
2022-08-11T09:54:58.419Z,1011.25
2022-08-11T09:55:58.293Z,1011.29
2022-08-11T09:57:05.145Z,1011.27
2022-08-11T09:57:58.296Z,1011.27
2022-08-11T09:58:58.177Z,1011.26
2022-08-11T10:00:09.391Z,1011.29
2022-08-11T10:00:58.233Z,1011.24
2022-08-11T10:01:58.238Z,1011.28
2022-08-11T10:02:58.495Z,1011.3
2022-08-11T10:03:58.815Z,1011.29
2022-08-11T10:04:59.087Z,1011.25
2022-08-11T10:05:58.109Z,1011.24
2022-08-11T10:06:58.137Z,1011.23
2022-08-11T10:07:58.114Z,1011.2
2022-08-11T10:08:58.107Z,1011.23
2022-08-11T10:09:58.113Z,1011.2
2022-08-11T10:10:58.100Z,1011.21
2022-08-11T10:12:01.278Z,1011.16
2022-08-11T10:12:58.104Z,1011.17
2022-08-11T10:14:32.311Z,1011.24
2022-08-11T10:14:58.206Z,1011.18
2022-08-11T10:16:14.922Z,1011.17
2022-08-11T10:16:58.118Z,1011.13
2022-08-11T10:17:58.140Z,1011.14
2022-08-11T10:18:58.260Z,1011.14
2022-08-11T10:20:07.281Z,1011.12
2022-08-11T10:20:58.118Z,1011.09
2022-08-11T10:21:58.106Z,1011.07
2022-08-11T10:22:58.115Z,1011.07
2022-08-11T10:24:06.073Z,1011.03
2022-08-11T10:24:58.118Z,1011.01
2022-08-11T10:25:58.197Z,1011.04
2022-08-11T10:27:00.197Z,1011.07
2022-08-11T10:28:18.554Z,1011.05
2022-08-11T10:29:12.865Z,1011.03
2022-08-11T10:30:00.161Z,1010.99
2022-08-11T10:30:59.119Z,1011
2022-08-11T10:32:05.169Z,1010.96
2022-08-11T10:33:02.140Z,1010.97
2022-08-11T10:34:01.505Z,1010.95
2022-08-11T10:35:01.089Z,1010.94
2022-08-11T10:35:58.105Z,1010.97
2022-08-11T10:36:58.118Z,1010.94
2022-08-11T10:38:09.825Z,1010.93
2022-08-11T10:38:58.495Z,1010.95
2022-08-11T10:39:58.226Z,1010.93
2022-08-11T10:40:58.126Z,1010.86
2022-08-11T10:42:08.800Z,1010.87
2022-08-11T10:43:01.423Z,1010.84
2022-08-11T10:44:05.198Z,1010.91
2022-08-11T10:44:58.179Z,1010.92
2022-08-11T10:45:58.457Z,1010.97
2022-08-11T10:46:58.213Z,1010.92
2022-08-11T10:47:58.133Z,1010.88
2022-08-11T10:48:58.339Z,1010.86
2022-08-11T10:49:58.121Z,1010.91
2022-08-11T10:50:58.360Z,1010.86
2022-08-11T10:52:00.623Z,1010.88
2022-08-11T10:52:58.422Z,1010.89
2022-08-11T10:53:58.155Z,1010.86
2022-08-11T10:54:58.407Z,1010.91
2022-08-11T10:56:01.838Z,1010.88
2022-08-11T10:56:58.103Z,1010.85
2022-08-11T10:58:07.164Z,1010.86
2022-08-11T10:59:03.959Z,1010.81
2022-08-11T10:59:58.214Z,1010.76
2022-08-11T11:00:58.142Z,1010.79
2022-08-11T11:01:58.120Z,1010.77
2022-08-11T11:03:22.575Z,1010.76
2022-08-11T11:03:58.104Z,1010.75
2022-08-11T11:04:58.118Z,1010.74
2022-08-11T11:06:12.529Z,1010.73
2022-08-11T11:06:58.109Z,1010.76
2022-08-11T11:07:58.102Z,1010.72
2022-08-11T11:09:06.116Z,1010.69
2022-08-11T11:09:58.111Z,1010.69
2022-08-11T11:10:58.112Z,1010.65
2022-08-11T11:11:58.101Z,1010.66
2022-08-11T11:12:58.115Z,1010.64
2022-08-11T11:14:04.117Z,1010.64
2022-08-11T11:15:01.127Z,1010.66
2022-08-11T11:15:58.096Z,1010.61
2022-08-11T11:16:58.100Z,1010.64
2022-08-11T11:17:58.117Z,1010.62
2022-08-11T11:19:04.241Z,1010.67
2022-08-11T11:19:58.117Z,1010.65
2022-08-11T11:20:58.117Z,1010.68
2022-08-11T11:21:58.154Z,1010.6
2022-08-11T11:22:58.119Z,1010.65
2022-08-11T11:23:59.126Z,1010.66
2022-08-11T11:24:58.109Z,1010.6
2022-08-11T11:26:01.110Z,1010.56
2022-08-11T11:26:58.107Z,1010.55
2022-08-11T11:27:58.109Z,1010.53
2022-08-11T11:28:58.104Z,1010.53
2022-08-11T11:29:58.112Z,1010.48
2022-08-11T11:30:58.116Z,1010.52
2022-08-11T11:31:58.235Z,1010.53
2022-08-11T11:32:58.112Z,1010.52
2022-08-11T11:34:12.445Z,1010.53
2022-08-11T11:34:58.336Z,1010.49
2022-08-11T11:35:58.107Z,1010.51
2022-08-11T11:36:58.122Z,1010.48
2022-08-11T11:38:09.372Z,1010.47
2022-08-11T11:38:58.105Z,1010.45
2022-08-11T11:39:58.106Z,1010.43
2022-08-11T11:40:58.083Z,1010.43
2022-08-11T11:41:58.235Z,1010.41
2022-08-11T11:42:58.172Z,1010.49
2022-08-11T11:43:58.115Z,1010.43
2022-08-11T11:45:03.546Z,1010.41
2022-08-11T11:45:58.463Z,1010.44
2022-08-11T11:47:00.042Z,1010.41
2022-08-11T11:47:58.564Z,1010.4
2022-08-11T11:48:57.871Z,1010.4
2022-08-11T11:49:58.170Z,1010.34
2022-08-11T11:51:00.494Z,1010.35
2022-08-11T11:51:57.730Z,1010.33
2022-08-11T11:52:58.037Z,1010.32
2022-08-11T11:53:58.310Z,1010.27
2022-08-11T11:54:58.657Z,1010.23
2022-08-11T11:56:00.028Z,1010.25
2022-08-11T11:56:58.614Z,1010.24
2022-08-11T11:58:03.636Z,1010.22
2022-08-11T11:58:58.394Z,1010.25
2022-08-11T11:59:58.255Z,1010.23
2022-08-11T12:00:58.120Z,1010.34
2022-08-11T12:01:58.095Z,1010.27
2022-08-11T12:02:58.382Z,1010.24
2022-08-11T12:03:58.108Z,1010.24
2022-08-11T12:04:58.277Z,1010.18
2022-08-11T12:05:58.574Z,1010.24
2022-08-11T12:06:58.072Z,1010.22
2022-08-11T12:08:10.452Z,1010.21
2022-08-11T12:08:58.351Z,1010.21
2022-08-11T12:09:58.416Z,1010.25
2022-08-11T12:10:58.886Z,1010.2